Terminal Aerodrome Forecast
Issued by NWS

Home | Current Version | Previous Version | Text Only | Print | Product List | Glossary On
Versions: 1 2 3 4 5 6 7 8 9 10 11 12
000
FTUS45 KRIW 290500
TAFCPR
TAF
KCPR 290525Z 2906/3006 09010KT P6SM SCT120 BKN200
     FM291200 08007KT P6SM SCT080 OVC120
     FM291500 08011KT P6SM VCSH SCT040 OVC100
     FM291900 07011G18KT P6SM VCTS SCT050CB OVC080
     FM300200 09010G15KT P6SM VCSH SCT050 OVC070=

USA.gov is the U.S. government's official web portal to all federal, state and local government web resources and services.